sensor_id;sensor_type;location;lat;lon;timestamp;P1;durP1;ratioP1;P2;durP2;ratioP2
60306;SDS011;46155;52.364;6.580;2023-12-22T04:01:31;16.00;;;8.80;;
60306;SDS011;46155;52.364;6.580;2023-12-22T04:03:56;9.00;;;7.10;;
60306;SDS011;46155;52.364;6.580;2023-12-22T04:06:22;9.83;;;6.97;;
60306;SDS011;46155;52.364;6.580;2023-12-22T04:08:47;11.83;;;6.93;;
60306;SDS011;46155;52.364;6.580;2023-12-22T04:11:12;14.63;;;6.67;;
60306;SDS011;46155;52.364;6.580;2023-12-22T04:13:37;12.20;;;6.87;;
60306;SDS011;46155;52.364;6.580;2023-12-22T04:16:03;20.80;;;7.17;;
60306;SDS011;46155;52.364;6.580;2023-12-22T04:18:30;19.37;;;6.17;;
60306;SDS011;46155;52.364;6.580;2023-12-22T04:20:55;9.43;;;6.43;;
60306;SDS011;46155;52.364;6.580;2023-12-22T04:23:20;15.43;;;8.00;;
60306;SDS011;46155;52.364;6.580;2023-12-22T04:25:46;12.47;;;7.33;;
60306;SDS011;46155;52.364;6.580;2023-12-22T04:28:11;12.17;;;6.70;;
60306;SDS011;46155;52.364;6.580;2023-12-22T04:30:36;22.13;;;8.30;;
60306;SDS011;46155;52.364;6.580;2023-12-22T04:33:02;38.03;;;8.30;;
60306;SDS011;46155;52.364;6.580;2023-12-22T04:35:27;18.13;;;8.13;;
60306;SDS011;46155;52.364;6.580;2023-12-22T04:37:52;9.00;;;7.53;;
60306;SDS011;46155;52.364;6.580;2023-12-22T04:40:18;26.97;;;10.03;;
60306;SDS011;46155;52.364;6.580;2023-12-22T04:42:44;17.80;;;8.67;;
60306;SDS011;46155;52.364;6.580;2023-12-22T04:45:10;20.53;;;8.77;;
60306;SDS011;46155;52.364;6.580;2023-12-22T04:47:35;18.57;;;7.77;;
60306;SDS011;46155;52.364;6.580;2023-12-22T04:50:00;21.33;;;7.63;;
60306;SDS011;46155;52.364;6.580;2023-12-22T04:52:25;16.87;;;8.40;;
60306;SDS011;46155;52.364;6.580;2023-12-22T04:54:51;20.13;;;8.90;;
60306;SDS011;46155;52.364;6.580;2023-12-22T04:57:16;19.43;;;8.53;;
60306;SDS011;46155;52.364;6.580;2023-12-22T04:59:41;22.50;;;8.00;;
60306;SDS011;46155;52.364;6.580;2023-12-22T05:02:07;10.63;;;9.07;;
60306;SDS011;46155;52.364;6.580;2023-12-22T05:04:32;19.10;;;8.00;;
60306;SDS011;46155;52.364;6.580;2023-12-22T05:06:57;33.83;;;10.13;;
60306;SDS011;46155;52.364;6.580;2023-12-22T05:09:23;18.03;;;8.53;;
60306;SDS011;46155;52.364;6.580;2023-12-22T05:11:50;22.37;;;8.80;;
60306;SDS011;46155;52.364;6.580;2023-12-22T05:14:15;19.47;;;7.53;;
60306;SDS011;46155;52.364;6.580;2023-12-22T05:16:40;19.30;;;8.17;;
60306;SDS011;46155;52.364;6.580;2023-12-22T05:19:06;10.47;;;7.70;;
60306;SDS011;46155;52.364;6.580;2023-12-22T05:21:31;27.20;;;8.80;;
60306;SDS011;46155;52.364;6.580;2023-12-22T05:23:56;21.87;;;7.93;;
60306;SDS011;46155;52.364;6.580;2023-12-22T05:26:22;22.10;;;7.73;;
60306;SDS011;46155;52.364;6.580;2023-12-22T05:28:48;20.53;;;8.33;;
60306;SDS011;46155;52.364;6.580;2023-12-22T05:31:16;15.73;;;7.23;;
60306;SDS011;46155;52.364;6.580;2023-12-22T05:33:42;18.30;;;8.47;;
60306;SDS011;46155;52.364;6.580;2023-12-22T05:36:08;26.10;;;9.30;;
60306;SDS011;46155;52.364;6.580;2023-12-22T05:38:36;22.07;;;8.70;;
60306;SDS011;46155;52.364;6.580;2023-12-22T05:41:02;19.97;;;7.83;;
60306;SDS011;46155;52.364;6.580;2023-12-22T05:43:28;23.70;;;9.33;;
60306;SDS011;46155;52.364;6.580;2023-12-22T05:45:53;20.80;;;9.13;;
60306;SDS011;46155;52.364;6.580;2023-12-22T05:48:18;21.83;;;8.83;;
60306;SDS011;46155;52.364;6.580;2023-12-22T05:50:46;18.87;;;8.53;;
60306;SDS011;46155;52.364;6.580;2023-12-22T05:53:12;13.87;;;8.60;;
60306;SDS011;46155;52.364;6.580;2023-12-22T05:55:37;19.93;;;8.10;;
60306;SDS011;46155;52.364;6.580;2023-12-22T05:58:02;20.67;;;7.83;;
60306;SDS011;46155;52.364;6.580;2023-12-22T06:00:28;20.63;;;7.43;;
60306;SDS011;46155;52.364;6.580;2023-12-22T06:02:53;18.80;;;8.47;;
60306;SDS011;46155;52.364;6.580;2023-12-22T06:05:18;29.53;;;8.00;;
60306;SDS011;46155;52.364;6.580;2023-12-22T06:07:44;17.93;;;7.73;;
60306;SDS011;46155;52.364;6.580;2023-12-22T06:10:09;28.43;;;8.57;;
60306;SDS011;46155;52.364;6.580;2023-12-22T06:12:35;24.23;;;8.03;;
60306;SDS011;46155;52.364;6.580;2023-12-22T06:15:01;12.23;;;7.27;;
60306;SDS011;46155;52.364;6.580;2023-12-22T06:17:26;23.43;;;7.60;;
60306;SDS011;46155;52.364;6.580;2023-12-22T06:19:51;25.63;;;8.73;;
60306;SDS011;46155;52.364;6.580;2023-12-22T06:22:16;20.87;;;7.30;;
60306;SDS011;46155;52.364;6.580;2023-12-22T06:24:42;19.37;;;7.90;;
60306;SDS011;46155;52.364;6.580;2023-12-22T06:27:08;19.57;;;8.77;;
60306;SDS011;46155;52.364;6.580;2023-12-22T06:29:33;24.73;;;8.40;;
60306;SDS011;46155;52.364;6.580;2023-12-22T06:31:59;19.40;;;7.60;;
60306;SDS011;46155;52.364;6.580;2023-12-22T06:34:24;23.77;;;7.50;;
60306;SDS011;46155;52.364;6.580;2023-12-22T06:36:50;19.90;;;8.30;;
60306;SDS011;46155;52.364;6.580;2023-12-22T06:39:16;16.57;;;8.10;;
60306;SDS011;46155;52.364;6.580;2023-12-22T06:41:41;12.30;;;7.60;;
60306;SDS011;46155;52.364;6.580;2023-12-22T06:44:06;17.03;;;9.23;;
60306;SDS011;46155;52.364;6.580;2023-12-22T06:46:32;19.10;;;7.80;;
60306;SDS011;46155;52.364;6.580;2023-12-22T06:48:57;24.70;;;8.33;;
60306;SDS011;46155;52.364;6.580;2023-12-22T06:51:26;21.20;;;9.40;;
60306;SDS011;46155;52.364;6.580;2023-12-22T06:53:52;44.27;;;9.90;;
60306;SDS011;46155;52.364;6.580;2023-12-22T06:56:20;29.57;;;10.67;;
60306;SDS011;46155;52.364;6.580;2023-12-22T06:58:48;20.93;;;11.30;;
60306;SDS011;46155;52.364;6.580;2023-12-22T07:01:25;24.63;;;11.43;;
60306;SDS011;46155;52.364;6.580;2023-12-22T07:03:54;26.23;;;12.30;;
60306;SDS011;46155;52.364;6.580;2023-12-22T07:06:22;26.03;;;14.33;;
60306;SDS011;46155;52.364;6.580;2023-12-22T07:11:46;14.73;;;12.17;;
60306;SDS011;46155;52.364;6.580;2023-12-22T07:14:13;21.73;;;11.33;;
60306;SDS011;46155;52.364;6.580;2023-12-22T07:16:40;18.30;;;12.10;;
60306;SDS011;46155;52.364;6.580;2023-12-22T07:19:07;11.13;;;9.87;;
60306;SDS011;46155;52.364;6.580;2023-12-22T07:21:32;16.83;;;11.87;;
60306;SDS011;46155;52.364;6.580;2023-12-22T07:23:58;22.97;;;13.47;;
60306;SDS011;46155;52.364;6.580;2023-12-22T07:26:23;13.83;;;12.73;;
60306;SDS011;46155;52.364;6.580;2023-12-22T07:28:49;15.77;;;12.50;;
60306;SDS011;46155;52.364;6.580;2023-12-22T07:31:14;15.17;;;13.97;;
60306;SDS011;46155;52.364;6.580;2023-12-22T07:33:40;18.17;;;13.03;;
60306;SDS011;46155;52.364;6.580;2023-12-22T07:36:08;15.73;;;14.13;;
60306;SDS011;46155;52.364;6.580;2023-12-22T07:38:33;18.57;;;13.20;;
60306;SDS011;46155;52.364;6.580;2023-12-22T07:40:59;15.00;;;14.00;;
60306;SDS011;46155;52.364;6.580;2023-12-22T07:43:24;16.63;;;14.53;;
60306;SDS011;46155;52.364;6.580;2023-12-22T07:45:50;15.13;;;13.60;;
60306;SDS011;46155;52.364;6.580;2023-12-22T07:48:16;15.60;;;14.20;;
60306;SDS011;46155;52.364;6.580;2023-12-22T07:50:42;21.43;;;15.90;;
60306;SDS011;46155;52.364;6.580;2023-12-22T07:53:07;17.40;;;15.93;;
60306;SDS011;46155;52.364;6.580;2023-12-22T07:55:33;20.23;;;18.30;;
60306;SDS011;46155;52.364;6.580;2023-12-22T07:57:58;20.13;;;18.40;;
60306;SDS011;46155;52.364;6.580;2023-12-22T08:00:23;16.30;;;15.07;;
60306;SDS011;46155;52.364;6.580;2023-12-22T08:02:49;16.23;;;13.53;;
60306;SDS011;46155;52.364;6.580;2023-12-22T08:05:14;13.63;;;12.47;;
60306;SDS011;46155;52.364;6.580;2023-12-22T08:07:40;14.57;;;13.23;;
60306;SDS011;46155;52.364;6.580;2023-12-22T08:10:06;17.67;;;15.80;;
60306;SDS011;46155;52.364;6.580;2023-12-22T08:12:31;14.90;;;11.33;;
60306;SDS011;46155;52.364;6.580;2023-12-22T08:14:57;19.33;;;13.63;;
60306;SDS011;46155;52.364;6.580;2023-12-22T08:17:23;21.53;;;14.17;;
60306;SDS011;46155;52.364;6.580;2023-12-22T08:19:48;15.03;;;13.50;;
60306;SDS011;46155;52.364;6.580;2023-12-22T08:22:14;17.77;;;12.07;;
60306;SDS011;46155;52.364;6.580;2023-12-22T08:24:40;18.03;;;14.73;;
60306;SDS011;46155;52.364;6.580;2023-12-22T08:27:06;17.37;;;14.03;;
60306;SDS011;46155;52.364;6.580;2023-12-22T08:29:32;15.13;;;13.93;;
60306;SDS011;46155;52.364;6.580;2023-12-22T08:31:57;13.57;;;12.43;;
60306;SDS011;46155;52.364;6.580;2023-12-22T08:34:23;11.60;;;10.57;;
60306;SDS011;46155;52.364;6.580;2023-12-22T08:36:48;16.67;;;11.00;;
60306;SDS011;46155;52.364;6.580;2023-12-22T08:39:13;11.93;;;10.83;;
60306;SDS011;46155;52.364;6.580;2023-12-22T08:41:39;9.80;;;9.03;;
60306;SDS011;46155;52.364;6.580;2023-12-22T08:44:04;10.30;;;9.40;;
60306;SDS011;46155;52.364;6.580;2023-12-22T08:46:31;9.17;;;8.43;;
60306;SDS011;46155;52.364;6.580;2023-12-22T08:48:57;9.80;;;8.70;;
60306;SDS011;46155;52.364;6.580;2023-12-22T08:51:24;9.33;;;8.33;;
60306;SDS011;46155;52.364;6.580;2023-12-22T08:53:49;11.07;;;9.00;;
60306;SDS011;46155;52.364;6.580;2023-12-22T08:56:15;10.40;;;9.43;;
60306;SDS011;46155;52.364;6.580;2023-12-22T08:58:42;9.40;;;8.80;;
60306;SDS011;46155;52.364;6.580;2023-12-22T09:01:07;13.77;;;9.37;;
60306;SDS011;46155;52.364;6.580;2023-12-22T09:03:33;12.43;;;11.60;;
60306;SDS011;46155;52.364;6.580;2023-12-22T09:05:58;16.70;;;10.83;;
60306;SDS011;46155;52.364;6.580;2023-12-22T09:08:24;12.87;;;11.87;;
60306;SDS011;46155;52.364;6.580;2023-12-22T09:10:49;12.83;;;11.63;;
60306;SDS011;46155;52.364;6.580;2023-12-22T09:13:15;13.27;;;11.93;;
60306;SDS011;46155;52.364;6.580;2023-12-22T09:15:40;15.23;;;11.00;;
60306;SDS011;46155;52.364;6.580;2023-12-22T09:18:06;14.53;;;11.47;;
60306;SDS011;46155;52.364;6.580;2023-12-22T09:20:32;12.23;;;11.20;;
60306;SDS011;46155;52.364;6.580;2023-12-22T09:22:58;11.80;;;10.70;;
60306;SDS011;46155;52.364;6.580;2023-12-22T09:25:23;12.37;;;11.17;;
60306;SDS011;46155;52.364;6.580;2023-12-22T09:27:49;13.47;;;12.10;;
60306;SDS011;46155;52.364;6.580;2023-12-22T09:30:14;14.13;;;13.03;;
60306;SDS011;46155;52.364;6.580;2023-12-22T09:32:40;15.10;;;13.63;;
60306;SDS011;46155;52.364;6.580;2023-12-22T09:35:05;19.53;;;13.80;;
60306;SDS011;46155;52.364;6.580;2023-12-22T09:37:31;15.73;;;13.00;;
60306;SDS011;46155;52.364;6.580;2023-12-22T09:39:56;15.10;;;13.53;;
60306;SDS011;46155;52.364;6.580;2023-12-22T09:42:21;17.70;;;15.83;;
60306;SDS011;46155;52.364;6.580;2023-12-22T09:44:50;21.20;;;19.47;;
60306;SDS011;46155;52.364;6.580;2023-12-22T09:47:18;16.63;;;15.00;;
60306;SDS011;46155;52.364;6.580;2023-12-22T09:49:44;17.00;;;15.53;;
60306;SDS011;46155;52.364;6.580;2023-12-22T09:52:11;15.27;;;13.97;;
60306;SDS011;46155;52.364;6.580;2023-12-22T09:54:38;16.67;;;15.40;;
60306;SDS011;46155;52.364;6.580;2023-12-22T09:57:05;15.60;;;13.47;;
60306;SDS011;46155;52.364;6.580;2023-12-22T09:59:31;14.43;;;12.57;;
60306;SDS011;46155;52.364;6.580;2023-12-22T10:01:58;16.13;;;14.80;;
60306;SDS011;46155;52.364;6.580;2023-12-22T10:04:27;18.47;;;14.40;;
60306;SDS011;46155;52.364;6.580;2023-12-22T10:06:52;19.33;;;17.63;;
60306;SDS011;46155;52.364;6.580;2023-12-22T10:09:22;16.63;;;15.27;;
60306;SDS011;46155;52.364;6.580;2023-12-22T10:11:49;17.10;;;13.43;;
60306;SDS011;46155;52.364;6.580;2023-12-22T10:14:18;12.47;;;11.43;;
60306;SDS011;46155;52.364;6.580;2023-12-22T10:16:48;13.70;;;12.40;;
60306;SDS011;46155;52.364;6.580;2023-12-22T10:19:14;14.93;;;13.57;;
60306;SDS011;46155;52.364;6.580;2023-12-22T10:21:40;14.67;;;13.10;;
60306;SDS011;46155;52.364;6.580;2023-12-22T10:24:05;15.77;;;14.43;;
60306;SDS011;46155;52.364;6.580;2023-12-22T10:26:31;14.83;;;13.47;;
60306;SDS011;46155;52.364;6.580;2023-12-22T10:28:56;13.20;;;12.30;;
60306;SDS011;46155;52.364;6.580;2023-12-22T10:31:21;17.50;;;13.80;;
60306;SDS011;46155;52.364;6.580;2023-12-22T10:33:47;15.67;;;14.60;;
60306;SDS011;46155;52.364;6.580;2023-12-22T10:36:13;15.03;;;13.97;;
60306;SDS011;46155;52.364;6.580;2023-12-22T10:38:39;16.37;;;15.40;;
60306;SDS011;46155;52.364;6.580;2023-12-22T10:41:05;17.63;;;14.23;;
60306;SDS011;46155;52.364;6.580;2023-12-22T10:43:36;16.67;;;15.47;;
60306;SDS011;46155;52.364;6.580;2023-12-22T10:46:03;13.53;;;12.33;;
60306;SDS011;46155;52.364;6.580;2023-12-22T10:48:28;14.10;;;13.13;;
60306;SDS011;46155;52.364;6.580;2023-12-22T10:50:54;14.30;;;13.07;;
60306;SDS011;46155;52.364;6.580;2023-12-22T10:53:20;12.77;;;12.03;;
60306;SDS011;46155;52.364;6.580;2023-12-22T10:55:46;14.17;;;13.27;;
60306;SDS011;46155;52.364;6.580;2023-12-22T10:58:15;12.67;;;11.67;;
60306;SDS011;46155;52.364;6.580;2023-12-22T11:00:41;11.60;;;10.70;;
60306;SDS011;46155;52.364;6.580;2023-12-22T11:03:10;12.50;;;11.30;;
60306;SDS011;46155;52.364;6.580;2023-12-22T11:05:42;13.43;;;12.38;;
60306;SDS011;46155;52.364;6.580;2023-12-22T11:08:09;14.77;;;13.67;;
60306;SDS011;46155;52.364;6.580;2023-12-22T11:10:37;13.10;;;11.83;;
60306;SDS011;46155;52.364;6.580;2023-12-22T11:13:08;12.30;;;11.40;;
60306;SDS011;46155;52.364;6.580;2023-12-22T11:15:34;12.40;;;11.80;;
60306;SDS011;46155;52.364;6.580;2023-12-22T11:18:01;12.53;;;11.60;;
60306;SDS011;46155;52.364;6.580;2023-12-22T11:20:26;12.10;;;11.17;;
60306;SDS011;46155;52.364;6.580;2023-12-22T11:22:52;12.53;;;11.70;;
60306;SDS011;46155;52.364;6.580;2023-12-22T11:25:20;12.90;;;11.60;;
60306;SDS011;46155;52.364;6.580;2023-12-22T11:27:47;12.27;;;11.60;;
60306;SDS011;46155;52.364;6.580;2023-12-22T11:30:19;12.63;;;12.03;;
60306;SDS011;46155;52.364;6.580;2023-12-22T11:32:46;13.13;;;12.43;;
60306;SDS011;46155;52.364;6.580;2023-12-22T11:35:14;13.90;;;12.97;;
60306;SDS011;46155;52.364;6.580;2023-12-22T11:37:39;13.67;;;12.87;;
60306;SDS011;46155;52.364;6.580;2023-12-22T11:40:07;13.27;;;12.67;;
60306;SDS011;46155;52.364;6.580;2023-12-22T11:42:33;11.50;;;11.00;;
60306;SDS011;46155;52.364;6.580;2023-12-22T11:45:04;15.50;;;12.20;;
60306;SDS011;46155;52.364;6.580;2023-12-22T11:47:30;13.37;;;12.60;;
60306;SDS011;46155;52.364;6.580;2023-12-22T11:49:55;11.97;;;10.87;;
60306;SDS011;46155;52.364;6.580;2023-12-22T11:52:27;14.40;;;13.60;;
60306;SDS011;46155;52.364;6.580;2023-12-22T11:54:56;16.07;;;15.07;;
60306;SDS011;46155;52.364;6.580;2023-12-22T11:57:30;14.70;;;14.00;;
60306;SDS011;46155;52.364;6.580;2023-12-22T11:59:56;15.73;;;15.03;;
60306;SDS011;46155;52.364;6.580;2023-12-22T12:02:22;16.23;;;15.43;;
60306;SDS011;46155;52.364;6.580;2023-12-22T12:04:48;14.87;;;13.97;;
60306;SDS011;46155;52.364;6.580;2023-12-22T12:10:08;15.37;;;14.57;;
60306;SDS011;46155;52.364;6.580;2023-12-22T12:12:34;17.03;;;16.03;;
60306;SDS011;46155;52.364;6.580;2023-12-22T12:15:06;16.27;;;15.37;;
60306;SDS011;46155;52.364;6.580;2023-12-22T12:17:33;18.20;;;17.07;;
60306;SDS011;46155;52.364;6.580;2023-12-22T12:19:58;17.77;;;16.60;;
60306;SDS011;46155;52.364;6.580;2023-12-22T12:22:24;19.73;;;18.43;;
60306;SDS011;46155;52.364;6.580;2023-12-22T12:24:51;18.10;;;17.20;;
60306;SDS011;46155;52.364;6.580;2023-12-22T12:27:18;17.70;;;16.80;;
60306;SDS011;46155;52.364;6.580;2023-12-22T12:29:44;16.13;;;15.33;;
60306;SDS011;46155;52.364;6.580;2023-12-22T12:32:10;14.37;;;13.67;;
60306;SDS011;46155;52.364;6.580;2023-12-22T12:34:42;16.90;;;15.80;;
60306;SDS011;46155;52.364;6.580;2023-12-22T12:37:07;15.60;;;14.80;;
60306;SDS011;46155;52.364;6.580;2023-12-22T12:39:34;18.03;;;16.93;;
60306;SDS011;46155;52.364;6.580;2023-12-22T12:42:00;18.87;;;17.67;;
60306;SDS011;46155;52.364;6.580;2023-12-22T12:44:29;18.00;;;17.00;;
60306;SDS011;46155;52.364;6.580;2023-12-22T12:46:57;17.53;;;16.47;;
60306;SDS011;46155;52.364;6.580;2023-12-22T12:49:23;16.17;;;15.30;;
60306;SDS011;46155;52.364;6.580;2023-12-22T12:51:52;16.93;;;15.93;;
60306;SDS011;46155;52.364;6.580;2023-12-22T12:54:18;18.33;;;17.17;;
60306;SDS011;46155;52.364;6.580;2023-12-22T12:56:44;16.10;;;15.30;;
60306;SDS011;46155;52.364;6.580;2023-12-22T12:59:13;20.57;;;19.40;;
60306;SDS011;46155;52.364;6.580;2023-12-22T13:01:40;20.57;;;19.23;;
60306;SDS011;46155;52.364;6.580;2023-12-22T13:04:06;19.57;;;18.43;;
60306;SDS011;46155;52.364;6.580;2023-12-22T13:06:31;17.20;;;16.40;;
60306;SDS011;46155;52.364;6.580;2023-12-22T13:08:58;18.87;;;17.57;;
60306;SDS011;46155;52.364;6.580;2023-12-22T13:11:24;19.93;;;18.20;;
60306;SDS011;46155;52.364;6.580;2023-12-22T13:13:52;18.23;;;17.30;;
60306;SDS011;46155;52.364;6.580;2023-12-22T13:16:20;21.30;;;19.87;;
60306;SDS011;46155;52.364;6.580;2023-12-22T13:18:50;19.43;;;18.13;;
60306;SDS011;46155;52.364;6.580;2023-12-22T13:21:16;17.57;;;16.37;;
60306;SDS011;46155;52.364;6.580;2023-12-22T13:23:41;17.00;;;15.73;;
60306;SDS011;46155;52.364;6.580;2023-12-22T13:26:16;18.80;;;17.80;;
60306;SDS011;46155;52.364;6.580;2023-12-22T13:28:42;20.47;;;18.87;;
60306;SDS011;46155;52.364;6.580;2023-12-22T13:31:10;17.30;;;16.40;;
60306;SDS011;46155;52.364;6.580;2023-12-22T13:33:36;19.40;;;18.50;;
60306;SDS011;46155;52.364;6.580;2023-12-22T13:36:02;20.17;;;18.80;;
60306;SDS011;46155;52.364;6.580;2023-12-22T13:38:28;19.20;;;18.30;;
60306;SDS011;46155;52.364;6.580;2023-12-22T13:40:53;15.40;;;14.70;;
60306;SDS011;46155;52.364;6.580;2023-12-22T13:43:19;15.77;;;14.97;;
60306;SDS011;46155;52.364;6.580;2023-12-22T13:45:44;17.23;;;16.17;;
60306;SDS011;46155;52.364;6.580;2023-12-22T13:48:15;18.93;;;17.83;;
60306;SDS011;46155;52.364;6.580;2023-12-22T13:50:41;18.23;;;17.13;;
60306;SDS011;46155;52.364;6.580;2023-12-22T13:53:09;16.73;;;15.50;;
60306;SDS011;46155;52.364;6.580;2023-12-22T13:55:36;17.27;;;16.37;;
60306;SDS011;46155;52.364;6.580;2023-12-22T13:58:02;19.53;;;18.13;;
60306;SDS011;46155;52.364;6.580;2023-12-22T14:00:29;17.00;;;16.00;;
60306;SDS011;46155;52.364;6.580;2023-12-22T14:02:56;17.50;;;16.40;;
60306;SDS011;46155;52.364;6.580;2023-12-22T14:05:21;20.07;;;18.80;;
60306;SDS011;46155;52.364;6.580;2023-12-22T14:07:47;19.07;;;17.70;;
60306;SDS011;46155;52.364;6.580;2023-12-22T14:10:13;17.97;;;16.93;;
60306;SDS011;46155;52.364;6.580;2023-12-22T14:12:39;15.40;;;14.60;;
60306;SDS011;46155;52.364;6.580;2023-12-22T14:15:06;19.30;;;18.20;;
60306;SDS011;46155;52.364;6.580;2023-12-22T14:17:31;17.67;;;16.77;;
60306;SDS011;46155;52.364;6.580;2023-12-22T14:19:57;17.70;;;16.53;;
60306;SDS011;46155;52.364;6.580;2023-12-22T14:22:22;18.43;;;17.33;;
60306;SDS011;46155;52.364;6.580;2023-12-22T14:24:47;19.03;;;17.57;;
60306;SDS011;46155;52.364;6.580;2023-12-22T14:27:13;17.77;;;16.87;;
60306;SDS011;46155;52.364;6.580;2023-12-22T14:29:38;18.20;;;16.93;;
60306;SDS011;46155;52.364;6.580;2023-12-22T14:32:05;20.73;;;19.53;;
60306;SDS011;46155;52.364;6.580;2023-12-22T14:34:33;20.53;;;19.17;;
60306;SDS011;46155;52.364;6.580;2023-12-22T14:36:58;20.97;;;19.67;;
60306;SDS011;46155;52.364;6.580;2023-12-22T14:39:24;24.30;;;22.67;;
60306;SDS011;46155;52.364;6.580;2023-12-22T14:41:49;24.77;;;23.37;;
60306;SDS011;46155;52.364;6.580;2023-12-22T14:44:15;20.73;;;19.03;;
60306;SDS011;46155;52.364;6.580;2023-12-22T14:46:40;24.37;;;22.03;;
60306;SDS011;46155;52.364;6.580;2023-12-22T14:49:06;24.00;;;22.23;;
60306;SDS011;46155;52.364;6.580;2023-12-22T14:51:35;23.40;;;21.27;;
60306;SDS011;46155;52.364;6.580;2023-12-22T14:54:02;22.67;;;20.97;;
60306;SDS011;46155;52.364;6.580;2023-12-22T14:56:28;26.67;;;24.70;;
60306;SDS011;46155;52.364;6.580;2023-12-22T14:58:53;24.40;;;22.27;;
60306;SDS011;46155;52.364;6.580;2023-12-22T15:01:18;26.20;;;24.07;;
60306;SDS011;46155;52.364;6.580;2023-12-22T15:03:44;23.93;;;22.17;;
60306;SDS011;46155;52.364;6.580;2023-12-22T15:06:09;12.87;;;12.07;;
60306;SDS011;46155;52.364;6.580;2023-12-22T15:08:34;14.20;;;13.40;;
60306;SDS011;46155;52.364;6.580;2023-12-22T15:11:00;14.83;;;13.73;;
60306;SDS011;46155;52.364;6.580;2023-12-22T15:13:25;14.37;;;13.67;;
60306;SDS011;46155;52.364;6.580;2023-12-22T15:15:51;17.77;;;16.90;;
60306;SDS011;46155;52.364;6.580;2023-12-22T15:18:16;17.30;;;16.40;;
60306;SDS011;46155;52.364;6.580;2023-12-22T15:20:42;15.63;;;14.43;;
60306;SDS011;46155;52.364;6.580;2023-12-22T15:23:07;15.50;;;14.80;;
60306;SDS011;46155;52.364;6.580;2023-12-22T15:25:32;16.67;;;15.87;;
60306;SDS011;46155;52.364;6.580;2023-12-22T15:27:57;16.17;;;15.20;;
60306;SDS011;46155;52.364;6.580;2023-12-22T15:30:23;16.80;;;16.00;;
60306;SDS011;46155;52.364;6.580;2023-12-22T15:32:50;18.17;;;16.57;;
60306;SDS011;46155;52.364;6.580;2023-12-22T15:35:15;15.60;;;14.83;;
60306;SDS011;46155;52.364;6.580;2023-12-22T15:37:40;15.13;;;14.43;;
60306;SDS011;46155;52.364;6.580;2023-12-22T15:40:06;16.67;;;15.57;;
60306;SDS011;46155;52.364;6.580;2023-12-22T15:42:34;13.07;;;12.47;;
60306;SDS011;46155;52.364;6.580;2023-12-22T15:44:59;14.20;;;12.87;;
60306;SDS011;46155;52.364;6.580;2023-12-22T15:47:24;17.20;;;16.33;;
60306;SDS011;46155;52.364;6.580;2023-12-22T15:49:50;16.20;;;15.40;;
60306;SDS011;46155;52.364;6.580;2023-12-22T15:52:15;17.87;;;16.20;;
60306;SDS011;46155;52.364;6.580;2023-12-22T15:54:40;16.23;;;15.13;;
60306;SDS011;46155;52.364;6.580;2023-12-22T15:57:06;22.20;;;20.10;;
60306;SDS011;46155;52.364;6.580;2023-12-22T15:59:31;20.13;;;18.57;;
60306;SDS011;46155;52.364;6.580;2023-12-22T16:01:56;16.97;;;15.83;;
60306;SDS011;46155;52.364;6.580;2023-12-22T16:04:21;15.20;;;14.10;;
60306;SDS011;46155;52.364;6.580;2023-12-22T16:06:47;16.77;;;15.50;;
60306;SDS011;46155;52.364;6.580;2023-12-22T16:09:12;19.40;;;18.13;;
60306;SDS011;46155;52.364;6.580;2023-12-22T16:11:38;14.20;;;13.20;;
60306;SDS011;46155;52.364;6.580;2023-12-22T16:16:31;14.23;;;13.32;;
60306;SDS011;46155;52.364;6.580;2023-12-22T16:18:57;11.03;;;10.33;;
60306;SDS011;46155;52.364;6.580;2023-12-22T16:21:22;10.73;;;10.13;;
60306;SDS011;46155;52.364;6.580;2023-12-22T16:23:48;10.87;;;10.17;;
60306;SDS011;46155;52.364;6.580;2023-12-22T16:26:17;12.77;;;10.20;;
60306;SDS011;46155;52.364;6.580;2023-12-22T16:28:43;9.37;;;8.67;;
60306;SDS011;46155;52.364;6.580;2023-12-22T16:31:08;10.10;;;9.10;;
60306;SDS011;46155;52.364;6.580;2023-12-22T16:33:35;10.07;;;8.93;;
60306;SDS011;46155;52.364;6.580;2023-12-22T16:36:00;12.83;;;11.83;;
60306;SDS011;46155;52.364;6.580;2023-12-22T16:38:25;12.27;;;9.33;;
60306;SDS011;46155;52.364;6.580;2023-12-22T16:40:51;13.67;;;11.10;;
60306;SDS011;46155;52.364;6.580;2023-12-22T16:43:16;9.23;;;8.60;;
60306;SDS011;46155;52.364;6.580;2023-12-22T16:45:41;11.03;;;9.83;;
60306;SDS011;46155;52.364;6.580;2023-12-22T16:48:06;9.47;;;7.33;;
60306;SDS011;46155;52.364;6.580;2023-12-22T16:50:32;11.07;;;9.33;;
60306;SDS011;46155;52.364;6.580;2023-12-22T16:52:57;9.53;;;8.73;;
60306;SDS011;46155;52.364;6.580;2023-12-22T16:55:22;10.07;;;9.23;;
60306;SDS011;46155;52.364;6.580;2023-12-22T16:57:48;11.13;;;10.20;;
60306;SDS011;46155;52.364;6.580;2023-12-22T17:00:13;10.53;;;9.37;;
60306;SDS011;46155;52.364;6.580;2023-12-22T17:02:39;11.83;;;10.80;;
60306;SDS011;46155;52.364;6.580;2023-12-22T17:05:05;12.57;;;9.17;;
60306;SDS011;46155;52.364;6.580;2023-12-22T17:07:30;9.70;;;9.00;;
60306;SDS011;46155;52.364;6.580;2023-12-22T17:09:55;11.50;;;9.50;;
60306;SDS011;46155;52.364;6.580;2023-12-22T17:12:21;12.93;;;8.60;;
60306;SDS011;46155;52.364;6.580;2023-12-22T17:14:46;9.40;;;8.87;;
60306;SDS011;46155;52.364;6.580;2023-12-22T17:17:12;9.30;;;8.80;;
60306;SDS011;46155;52.364;6.580;2023-12-22T17:19:37;8.23;;;7.50;;
60306;SDS011;46155;52.364;6.580;2023-12-22T17:22:02;8.80;;;8.00;;
60306;SDS011;46155;52.364;6.580;2023-12-22T17:24:28;9.40;;;8.60;;
60306;SDS011;46155;52.364;6.580;2023-12-22T17:26:53;8.17;;;7.63;;
60306;SDS011;46155;52.364;6.580;2023-12-22T17:29:18;10.20;;;7.67;;
60306;SDS011;46155;52.364;6.580;2023-12-22T17:31:43;9.00;;;8.20;;
60306;SDS011;46155;52.364;6.580;2023-12-22T17:34:09;8.50;;;7.90;;
60306;SDS011;46155;52.364;6.580;2023-12-22T17:36:34;8.93;;;7.57;;
60306;SDS011;46155;52.364;6.580;2023-12-22T17:38:59;10.83;;;8.97;;
60306;SDS011;46155;52.364;6.580;2023-12-22T17:41:25;10.93;;;10.23;;
60306;SDS011;46155;52.364;6.580;2023-12-22T17:43:50;8.97;;;8.17;;
60306;SDS011;46155;52.364;6.580;2023-12-22T17:46:16;8.13;;;7.03;;
60306;SDS011;46155;52.364;6.580;2023-12-22T17:48:43;12.47;;;8.80;;
60306;SDS011;46155;52.364;6.580;2023-12-22T17:51:08;8.53;;;6.70;;
60306;SDS011;46155;52.364;6.580;2023-12-22T17:53:34;10.57;;;6.20;;
60306;SDS011;46155;52.364;6.580;2023-12-22T17:55:59;7.33;;;6.03;;
60306;SDS011;46155;52.364;6.580;2023-12-22T17:58:24;6.80;;;6.40;;
60306;SDS011;46155;52.364;6.580;2023-12-22T18:00:50;8.57;;;7.00;;
60306;SDS011;46155;52.364;6.580;2023-12-22T18:03:15;6.97;;;6.33;;
60306;SDS011;46155;52.364;6.580;2023-12-22T18:05:41;6.40;;;5.80;;
60306;SDS011;46155;52.364;6.580;2023-12-22T18:08:08;6.87;;;5.17;;
60306;SDS011;46155;52.364;6.580;2023-12-22T18:10:34;6.23;;;5.67;;
60306;SDS011;46155;52.364;6.580;2023-12-22T18:12:59;7.50;;;5.00;;
60306;SDS011;46155;52.364;6.580;2023-12-22T18:15:25;5.47;;;5.07;;
60306;SDS011;46155;52.364;6.580;2023-12-22T18:17:50;7.47;;;5.20;;
60306;SDS011;46155;52.364;6.580;2023-12-22T18:20:16;5.30;;;4.90;;
60306;SDS011;46155;52.364;6.580;2023-12-22T18:22:41;5.63;;;5.23;;
60306;SDS011;46155;52.364;6.580;2023-12-22T18:25:07;5.30;;;5.00;;
60306;SDS011;46155;52.364;6.580;2023-12-22T18:27:35;8.90;;;4.93;;
60306;SDS011;46155;52.364;6.580;2023-12-22T18:30:02;5.23;;;4.83;;